createdAt,value
2022-11-19T06:52:19.428Z,16.58
2022-11-19T06:54:45.922Z,17.38
2022-11-19T06:57:12.449Z,16.77
2022-11-19T06:59:39.160Z,19.05
2022-11-19T07:02:05.998Z,17.52
2022-11-19T07:04:32.516Z,19.55
2022-11-19T07:06:59.218Z,17.80
2022-11-19T07:09:25.677Z,17.98
2022-11-19T07:11:52.179Z,19.10
2022-11-19T07:14:18.658Z,18.25
2022-11-19T07:16:45.118Z,17.85
2022-11-19T07:19:11.604Z,18.80
2022-11-19T07:21:38.159Z,18.80
2022-11-19T07:24:05.773Z,17.15
2022-11-19T07:26:33.192Z,19.20
2022-11-19T07:29:04.423Z,19.00
2022-11-19T07:31:31.782Z,18.10
2022-11-19T07:33:58.291Z,20.05
2022-11-19T07:36:24.937Z,18.15
2022-11-19T07:38:52.427Z,17.95
2022-11-19T07:41:38.198Z,18.27
2022-11-19T07:44:05.272Z,19.52
2022-11-19T07:46:31.794Z,19.33
2022-11-19T07:48:58.324Z,19.92
2022-11-19T07:51:25.174Z,19.00
2022-11-19T07:53:51.833Z,19.02
2022-11-19T07:56:18.905Z,20.35
2022-11-19T07:58:45.401Z,18.42
2022-11-19T08:01:13.545Z,19.75
2022-11-19T08:03:42.528Z,19.05
2022-11-19T08:06:10.166Z,19.67
2022-11-19T08:08:36.725Z,20.13
2022-11-19T08:11:07.654Z,19.20
2022-11-19T08:13:36.055Z,19.30
2022-11-19T08:24:03.594Z,18.10
2022-11-19T08:26:30.075Z,18.20
2022-11-19T08:28:56.525Z,19.55
2022-11-19T08:31:23.122Z,18.40
2022-11-19T08:38:38.221Z,18.30
2022-11-19T08:41:23.861Z,18.27
2022-11-19T08:44:38.513Z,18.90
2022-11-19T08:51:36.963Z,16.70
2022-11-19T08:58:11.401Z,15.95
2022-11-19T09:01:31.679Z,17.58
2022-11-19T09:04:19.111Z,18.50
2022-11-19T09:06:45.892Z,16.67
2022-11-19T09:16:07.320Z,18.23
2022-11-19T09:23:04.877Z,17.98
2022-11-19T09:25:59.331Z,18.98
2022-11-19T09:36:19.527Z,18.52
2022-11-19T09:38:46.684Z,18.60
2022-11-19T09:41:28.704Z,17.23
2022-11-19T09:44:18.523Z,16.63
2022-11-19T09:47:05.392Z,17.13
2022-11-19T09:49:38.111Z,17.98
2022-11-19T09:52:06.485Z,16.05
2022-11-19T09:54:33.252Z,17.30
2022-11-19T09:57:04.536Z,16.73
2022-11-19T09:59:36.720Z,17.63
2022-11-19T10:02:12.812Z,16.50
2022-11-19T10:04:39.280Z,15.68
2022-11-19T10:07:12.991Z,16.45
2022-11-19T10:09:42.204Z,16.92
2022-11-19T10:12:19.265Z,16.20
2022-11-19T10:15:07.279Z,16.65
2022-11-19T10:17:36.764Z,16.27
2022-11-19T10:20:09.188Z,17.23
2022-11-19T10:22:35.626Z,16.15
2022-11-19T10:25:11.760Z,15.98
2022-11-19T10:27:42.244Z,16.42
2022-11-19T10:30:14.163Z,15.55
2022-11-19T10:33:09.895Z,15.85
2022-11-19T10:35:42.022Z,14.43
2022-11-19T10:38:31.609Z,14.27
2022-11-19T10:41:19.299Z,15.63
2022-11-19T10:43:48.713Z,15.23
2022-11-19T10:46:16.753Z,15.20
2022-11-19T10:48:47.729Z,14.13
2022-11-19T10:51:34.522Z,15.60
2022-11-19T10:54:04.509Z,15.52
2022-11-19T10:56:42.167Z,15.52
2022-11-19T10:59:08.586Z,14.98
2022-11-19T11:01:36.719Z,15.35
2022-11-19T11:04:20.232Z,14.68
2022-11-19T11:06:58.937Z,15.27
2022-11-19T11:09:29.571Z,13.45
2022-11-19T11:12:15.545Z,14.93
2022-11-19T11:14:52.079Z,14.52
2022-11-19T11:17:23.720Z,14.95
2022-11-19T11:20:04.894Z,15.63
2022-11-19T11:22:31.564Z,15.85
2022-11-19T11:25:04.125Z,15.35
2022-11-19T11:27:34.364Z,14.63
2022-11-19T11:30:04.960Z,15.77
2022-11-19T11:32:32.121Z,14.95
2022-11-19T11:35:03.479Z,13.98
2022-11-19T11:37:33.414Z,15.50
2022-11-19T11:40:00.194Z,15.63
2022-11-19T11:42:28.723Z,14.98
2022-11-19T11:47:29.463Z,14.93
2022-11-19T11:50:02.912Z,14.60
2022-11-19T11:52:49.222Z,14.18
2022-11-19T11:55:29.120Z,14.40
2022-11-19T11:57:55.598Z,13.98
2022-11-19T12:00:31.874Z,14.32
2022-11-19T12:03:02.693Z,15.50
2022-11-19T12:05:31.484Z,14.13
2022-11-19T12:08:09.646Z,16.02
2022-11-19T12:10:44.941Z,14.98
2022-11-19T12:13:29.729Z,14.75
2022-11-19T12:16:06.990Z,14.38
2022-11-19T12:18:36.554Z,14.70
2022-11-19T12:21:11.999Z,15.20
2022-11-19T12:23:41.739Z,15.70
2022-11-19T12:26:30.911Z,17.45
2022-11-19T12:29:05.219Z,17.80
2022-11-19T12:31:57.788Z,14.25
2022-11-19T12:34:33.524Z,13.50
2022-11-19T12:37:18.694Z,14.90
2022-11-19T12:40:04.733Z,13.73
2022-11-19T12:42:57.458Z,12.93
2022-11-19T12:45:36.347Z,13.10
2022-11-19T12:48:21.606Z,13.15
2022-11-19T12:51:06.485Z,13.98
2022-11-19T12:53:41.240Z,14.27
2022-11-19T12:56:20.432Z,13.77
2022-11-19T12:58:52.113Z,14.65
2022-11-19T13:01:21.537Z,14.30
2022-11-19T13:03:47.973Z,15.02
2022-11-19T13:06:18.437Z,15.73
2022-11-19T13:08:44.946Z,14.52
2022-11-19T13:11:14.627Z,14.15
2022-11-19T13:13:44.215Z,14.18
2022-11-19T13:16:12.657Z,14.65
2022-11-19T13:18:41.749Z,14.40
2022-11-19T13:21:30.422Z,14.38
2022-11-19T13:23:57.356Z,14.93
2022-11-19T13:26:25.772Z,13.98
2022-11-19T13:28:52.239Z,13.85
2022-11-19T13:31:36.722Z,13.95
2022-11-19T13:34:08.325Z,14.15
2022-11-19T13:36:59.280Z,16.02
2022-11-19T13:39:55.057Z,13.77
2022-11-19T13:42:40.422Z,34.03
2022-11-19T13:45:13.240Z,16.92
2022-11-19T13:47:48.996Z,16.40
2022-11-19T13:50:18.389Z,13.52
2022-11-19T13:52:50.010Z,18.17
2022-11-19T13:55:29.836Z,13.05
2022-11-19T13:57:56.982Z,12.07
2022-11-19T14:00:24.820Z,13.40
2022-11-19T14:03:04.304Z,15.40
2022-11-19T14:05:33.600Z,14.60
2022-11-19T14:08:03.226Z,13.68
2022-11-19T14:10:41.709Z,13.00
2022-11-19T14:16:13.480Z,13.15
2022-11-19T14:19:00.295Z,13.25
2022-11-19T14:21:45.496Z,13.13
2022-11-19T14:24:46.033Z,12.52
2022-11-19T14:27:22.212Z,13.55
2022-11-19T14:29:48.695Z,13.50
2022-11-19T14:32:15.204Z,13.68
2022-11-19T14:34:43.993Z,13.27
2022-11-19T14:37:24.934Z,13.38
2022-11-19T14:40:01.099Z,13.32
2022-11-19T14:42:27.584Z,13.38
2022-11-19T14:45:03.137Z,12.82
2022-11-19T14:47:34.555Z,12.88
2022-11-19T14:50:02.385Z,12.95
2022-11-19T14:52:30.802Z,13.75
2022-11-19T14:54:57.296Z,13.75
2022-11-19T14:57:23.721Z,14.90
2022-11-19T14:59:52.331Z,14.57
2022-11-19T15:04:54.487Z,14.90
2022-11-19T15:07:32.927Z,15.77
2022-11-19T15:10:14.536Z,14.40
2022-11-19T15:12:40.962Z,13.38
2022-11-19T15:15:27.633Z,14.50
2022-11-19T15:18:01.935Z,16.08
2022-11-19T15:20:37.652Z,13.93
2022-11-19T15:23:04.109Z,15.05
2022-11-19T15:25:36.401Z,17.00
2022-11-19T15:28:11.977Z,16.02
2022-11-19T15:30:56.808Z,15.23
2022-11-19T15:33:37.929Z,15.50
2022-11-19T15:36:25.431Z,14.35
2022-11-19T15:38:52.116Z,15.95
2022-11-19T15:41:22.295Z,15.65
2022-11-19T15:43:51.814Z,15.20
2022-11-19T15:46:41.566Z,15.85
2022-11-19T15:49:12.106Z,15.55
2022-11-19T15:51:58.883Z,16.88
2022-11-19T15:54:29.853Z,17.30
2022-11-19T15:56:58.004Z,19.02
2022-11-19T15:59:26.010Z,17.48
2022-11-19T16:02:03.181Z,15.20
2022-11-19T16:04:37.481Z,17.73
2022-11-19T16:07:05.319Z,16.13
2022-11-19T16:09:31.843Z,17.02
2022-11-19T16:12:17.292Z,16.70
2022-11-19T16:15:07.756Z,16.70
2022-11-19T16:17:43.064Z,17.27
2022-11-19T16:20:09.877Z,17.33
2022-11-19T16:22:42.514Z,18.85
2022-11-19T16:25:12.053Z,17.83
2022-11-19T16:27:40.809Z,17.35
2022-11-19T16:30:15.741Z,17.67
2022-11-19T16:32:42.279Z,17.52
2022-11-19T16:35:10.613Z,16.98
2022-11-19T16:37:37.673Z,17.83
2022-11-19T16:40:04.521Z,17.95
2022-11-19T16:42:32.748Z,17.70
2022-11-19T16:45:14.699Z,17.27
2022-11-19T16:47:50.167Z,17.55
2022-11-19T16:50:25.788Z,17.08
2022-11-19T16:52:52.707Z,17.63
2022-11-19T16:55:19.419Z,18.25
2022-11-19T16:57:46.972Z,18.08
2022-11-19T17:00:17.280Z,18.40
2022-11-19T17:02:44.006Z,17.17
2022-11-19T17:05:12.644Z,17.20
2022-11-19T17:07:40.698Z,18.08
2022-11-19T17:10:10.186Z,17.52
2022-11-19T17:12:37.187Z,18.58
2022-11-19T17:15:22.256Z,18.95
2022-11-19T17:17:50.943Z,17.63
2022-11-19T17:20:27.249Z,18.70
2022-11-19T17:22:54.122Z,19.23
2022-11-19T17:25:20.569Z,18.17
2022-11-19T17:27:51.375Z,19.40
2022-11-19T17:30:17.812Z,19.52
2022-11-19T17:33:07.362Z,19.60
2022-11-19T17:35:35.996Z,18.88
2022-11-19T17:38:23.813Z,19.85
2022-11-19T17:40:50.362Z,19.08
2022-11-19T17:43:40.226Z,19.42
2022-11-19T17:46:06.797Z,18.67
2022-11-19T17:48:34.136Z,17.63
2022-11-19T17:51:00.589Z,19.67
2022-11-19T17:53:27.055Z,19.45
2022-11-19T17:55:54.849Z,18.25
2022-11-19T17:58:21.327Z,21.30
2022-11-19T18:00:47.847Z,19.83
2022-11-19T18:03:14.849Z,19.88
2022-11-19T18:05:48.704Z,19.42
2022-11-19T18:08:16.019Z,18.77
2022-11-19T18:10:43.426Z,18.42
2022-11-19T18:13:11.153Z,18.58
2022-11-19T18:15:37.756Z,17.65
2022-11-19T18:18:04.253Z,19.75
2022-11-19T18:20:30.790Z,18.67
2022-11-19T18:22:57.247Z,18.85
2022-11-19T18:25:24.051Z,17.77
2022-11-19T18:27:50.535Z,18.60
2022-11-19T18:30:17.101Z,18.17
2022-11-19T18:32:43.656Z,18.27
2022-11-19T18:35:18.094Z,18.55
2022-11-19T18:37:45.075Z,17.75
2022-11-19T18:40:12.222Z,22.95
2022-11-19T18:42:38.776Z,19.80
2022-11-19T18:45:06.038Z,19.52
2022-11-19T18:47:32.614Z,20.38
2022-11-19T18:49:59.082Z,20.70
2022-11-19T18:52:25.567Z,19.95
2022-11-19T18:54:52.096Z,19.60
2022-11-19T18:57:18.580Z,19.75
2022-11-19T18:59:45.127Z,20.83
2022-11-19T19:02:11.823Z,18.80
2022-11-19T19:04:38.503Z,19.35
2022-11-19T19:07:05.287Z,21.10
2022-11-19T19:09:32.111Z,19.63
2022-11-19T19:12:17.202Z,19.63
2022-11-19T19:14:44.962Z,18.35
2022-11-19T19:17:12.013Z,19.70
2022-11-19T19:19:38.926Z,18.75
2022-11-19T19:22:05.749Z,18.40
2022-11-19T19:24:32.561Z,17.85
2022-11-19T19:26:59.678Z,16.35
2022-11-19T19:29:26.266Z,18.00
2022-11-19T19:31:52.788Z,16.73
2022-11-19T19:34:19.763Z,18.85
2022-11-19T19:36:50.300Z,19.05
2022-11-19T19:39:20.038Z,18.33
2022-11-19T19:41:46.700Z,18.23
2022-11-19T19:44:13.149Z,20.40
2022-11-19T19:46:39.709Z,19.02
2022-11-19T19:49:06.214Z,18.15
2022-11-19T19:51:32.904Z,18.95
2022-11-19T19:53:59.817Z,18.67
2022-11-19T19:56:27.630Z,18.30
2022-11-19T19:58:54.507Z,18.88
2022-11-19T20:01:20.910Z,18.20
2022-11-19T20:03:51.743Z,22.52
2022-11-19T20:06:22.168Z,19.60
2022-11-19T20:08:48.744Z,19.25
2022-11-19T20:11:17.504Z,18.67
2022-11-19T20:13:44.446Z,20.20
2022-11-19T20:16:18.117Z,19.48
2022-11-19T20:18:46.053Z,19.55
2022-11-19T20:21:13.678Z,19.33
2022-11-19T20:23:41.219Z,19.93
2022-11-19T20:26:11.038Z,20.27
2022-11-19T20:28:37.896Z,21.65
2022-11-19T20:31:08.842Z,21.42
2022-11-19T20:33:35.419Z,21.63
2022-11-19T20:36:02.117Z,22.35
2022-11-19T20:38:28.749Z,20.63
2022-11-19T20:40:56.068Z,21.17
2022-11-19T20:43:45.805Z,20.98
2022-11-19T20:46:17.648Z,21.38
2022-11-19T20:48:45.024Z,20.63
2022-11-19T20:51:12.392Z,19.33
2022-11-19T20:53:39.174Z,19.83
2022-11-19T20:56:06.046Z,21.10
2022-11-19T20:58:33.096Z,20.52
2022-11-19T21:01:03.739Z,19.25
2022-11-19T21:03:30.903Z,18.58
2022-11-19T21:06:01.108Z,18.17
2022-11-19T21:08:28.202Z,18.85
2022-11-19T21:10:58.787Z,17.42
2022-11-19T21:13:25.593Z,19.48
2022-11-19T21:15:52.200Z,18.85
2022-11-19T21:18:21.081Z,19.02
2022-11-19T21:20:51.013Z,19.38
2022-11-19T21:23:18.684Z,19.25
2022-11-19T21:25:45.333Z,19.05
2022-11-19T21:28:11.854Z,20.15
2022-11-19T21:30:38.467Z,19.65
2022-11-19T21:33:05.028Z,18.70
2022-11-19T21:35:31.550Z,19.00
2022-11-19T21:37:57.986Z,18.70
2022-11-19T21:40:24.481Z,18.98
2022-11-19T21:42:50.942Z,19.75
2022-11-19T21:45:17.532Z,19.38
2022-11-19T21:47:44.034Z,18.75
2022-11-19T21:50:10.502Z,19.13
2022-11-19T21:52:36.979Z,19.05
2022-11-19T21:55:03.531Z,19.25
2022-11-19T21:57:30.030Z,19.95
2022-11-19T21:59:56.472Z,18.77
2022-11-19T22:02:23.076Z,19.05
2022-11-19T22:04:49.509Z,18.55
2022-11-19T22:07:16.062Z,20.38
2022-11-19T22:09:42.555Z,19.38
2022-11-19T22:12:09.006Z,18.35
2022-11-19T22:14:35.514Z,20.52
2022-11-19T22:17:02.031Z,18.65
2022-11-19T22:19:28.531Z,20.02
2022-11-19T22:21:54.928Z,21.20
2022-11-19T22:24:21.540Z,20.95
2022-11-19T22:26:48.063Z,21.98
2022-11-19T22:29:14.558Z,21.45
2022-11-19T22:31:41.100Z,26.35
2022-11-19T22:34:07.606Z,23.73
2022-11-19T22:36:34.202Z,23.88
2022-11-19T22:39:00.651Z,23.17
2022-11-19T22:41:27.176Z,21.65
2022-11-19T22:43:53.634Z,22.85
2022-11-19T22:46:20.433Z,22.20
2022-11-19T22:48:47.003Z,21.92
2022-11-19T22:51:13.500Z,20.80
